sensor_id;sensor_type;location;lat;lon;timestamp;P1;durP1;ratioP1;P2;durP2;ratioP2
29504;SDS011;16452;54.174;12.092;2022-10-16T00:00:56;5.75;;;4.47;;
29504;SDS011;16452;54.174;12.092;2022-10-16T00:03:21;6.10;;;4.78;;
29504;SDS011;16452;54.174;12.092;2022-10-16T00:05:48;4.93;;;4.25;;
29504;SDS011;16452;54.174;12.092;2022-10-16T00:08:13;5.45;;;4.35;;
29504;SDS011;16452;54.174;12.092;2022-10-16T00:10:39;8.52;;;4.95;;
29504;SDS011;16452;54.174;12.092;2022-10-16T00:13:05;7.93;;;4.32;;
29504;SDS011;16452;54.174;12.092;2022-10-16T00:15:35;6.07;;;4.90;;
29504;SDS011;16452;54.174;12.092;2022-10-16T00:18:02;5.55;;;5.05;;
29504;SDS011;16452;54.174;12.092;2022-10-16T00:20:29;6.75;;;4.95;;
29504;SDS011;16452;54.174;12.092;2022-10-16T00:22:58;5.30;;;4.80;;
29504;SDS011;16452;54.174;12.092;2022-10-16T00:25:24;9.25;;;5.00;;
29504;SDS011;16452;54.174;12.092;2022-10-16T00:27:49;5.10;;;4.65;;
29504;SDS011;16452;54.174;12.092;2022-10-16T00:30:15;5.88;;;5.22;;
29504;SDS011;16452;54.174;12.092;2022-10-16T00:32:41;5.20;;;4.70;;
29504;SDS011;16452;54.174;12.092;2022-10-16T00:35:06;4.85;;;4.45;;
29504;SDS011;16452;54.174;12.092;2022-10-16T00:37:32;6.20;;;5.55;;
29504;SDS011;16452;54.174;12.092;2022-10-16T00:39:58;6.13;;;5.53;;
29504;SDS011;16452;54.174;12.092;2022-10-16T00:42:24;5.70;;;5.10;;
29504;SDS011;16452;54.174;12.092;2022-10-16T00:44:51;5.60;;;5.10;;
29504;SDS011;16452;54.174;12.092;2022-10-16T00:47:41;7.28;;;6.03;;
29504;SDS011;16452;54.174;12.092;2022-10-16T00:50:13;6.20;;;5.00;;
29504;SDS011;16452;54.174;12.092;2022-10-16T00:52:55;6.63;;;5.20;;
29504;SDS011;16452;54.174;12.092;2022-10-16T00:55:22;5.72;;;5.20;;
29504;SDS011;16452;54.174;12.092;2022-10-16T00:57:49;5.55;;;5.00;;
29504;SDS011;16452;54.174;12.092;2022-10-16T01:00:18;7.15;;;5.03;;
29504;SDS011;16452;54.174;12.092;2022-10-16T01:03:22;7.80;;;5.00;;
29504;SDS011;16452;54.174;12.092;2022-10-16T01:06:04;5.43;;;4.70;;
29504;SDS011;16452;54.174;12.092;2022-10-16T01:09:06;5.70;;;4.60;;
29504;SDS011;16452;54.174;12.092;2022-10-16T01:17:18;8.35;;;5.50;;
29504;SDS011;16452;54.174;12.092;2022-10-16T01:20:14;5.95;;;5.35;;
29504;SDS011;16452;54.174;12.092;2022-10-16T01:31:44;5.13;;;4.10;;
29504;SDS011;16452;54.174;12.092;2022-10-16T01:34:28;5.93;;;4.18;;
29504;SDS011;16452;54.174;12.092;2022-10-16T01:37:05;5.70;;;4.00;;
29504;SDS011;16452;54.174;12.092;2022-10-16T01:39:45;5.70;;;4.22;;
29504;SDS011;16452;54.174;12.092;2022-10-16T01:42:16;5.35;;;4.00;;
29504;SDS011;16452;54.174;12.092;2022-10-16T01:44:47;9.20;;;3.65;;
29504;SDS011;16452;54.174;12.092;2022-10-16T01:47:15;9.43;;;3.80;;
29504;SDS011;16452;54.174;12.092;2022-10-16T01:49:43;9.90;;;3.65;;
29504;SDS011;16452;54.174;12.092;2022-10-16T01:52:12;4.97;;;3.25;;
29504;SDS011;16452;54.174;12.092;2022-10-16T01:54:43;6.05;;;3.40;;
29504;SDS011;16452;54.174;12.092;2022-10-16T01:57:12;7.05;;;3.35;;
29504;SDS011;16452;54.174;12.092;2022-10-16T01:59:41;4.38;;;3.10;;
29504;SDS011;16452;54.174;12.092;2022-10-16T02:02:14;5.05;;;3.33;;
29504;SDS011;16452;54.174;12.092;2022-10-16T02:04:43;4.68;;;2.92;;
29504;SDS011;16452;54.174;12.092;2022-10-16T02:07:48;8.43;;;3.03;;
29504;SDS011;16452;54.174;12.092;2022-10-16T02:10:15;7.25;;;2.88;;
29504;SDS011;16452;54.174;12.092;2022-10-16T02:12:43;5.68;;;3.25;;
29504;SDS011;16452;54.174;12.092;2022-10-16T02:15:19;5.78;;;3.17;;
29504;SDS011;16452;54.174;12.092;2022-10-16T02:17:44;5.50;;;3.72;;
29504;SDS011;16452;54.174;12.092;2022-10-16T02:20:10;6.63;;;4.18;;
29504;SDS011;16452;54.174;12.092;2022-10-16T02:22:40;7.13;;;4.20;;
29504;SDS011;16452;54.174;12.092;2022-10-16T02:25:22;6.03;;;5.00;;
29504;SDS011;16452;54.174;12.092;2022-10-16T02:28:04;6.43;;;4.80;;
29504;SDS011;16452;54.174;12.092;2022-10-16T02:30:36;7.20;;;5.50;;
29504;SDS011;16452;54.174;12.092;2022-10-16T02:33:09;6.10;;;5.00;;
29504;SDS011;16452;54.174;12.092;2022-10-16T02:35:38;6.72;;;5.47;;
29504;SDS011;16452;54.174;12.092;2022-10-16T02:38:06;7.35;;;5.93;;
29504;SDS011;16452;54.174;12.092;2022-10-16T02:40:34;7.22;;;5.90;;
29504;SDS011;16452;54.174;12.092;2022-10-16T02:43:00;7.47;;;6.20;;
29504;SDS011;16452;54.174;12.092;2022-10-16T02:45:29;7.90;;;6.20;;
29504;SDS011;16452;54.174;12.092;2022-10-16T02:47:55;8.82;;;6.45;;
29504;SDS011;16452;54.174;12.092;2022-10-16T02:50:21;7.03;;;6.28;;
29504;SDS011;16452;54.174;12.092;2022-10-16T02:52:47;10.10;;;6.00;;
29504;SDS011;16452;54.174;12.092;2022-10-16T02:55:13;6.80;;;5.80;;
29504;SDS011;16452;54.174;12.092;2022-10-16T02:57:42;9.75;;;6.03;;
29504;SDS011;16452;54.174;12.092;2022-10-16T03:00:09;7.35;;;6.03;;
29504;SDS011;16452;54.174;12.092;2022-10-16T03:02:38;8.73;;;5.65;;
29504;SDS011;16452;54.174;12.092;2022-10-16T03:05:05;8.43;;;6.05;;
29504;SDS011;16452;54.174;12.092;2022-10-16T03:07:31;8.30;;;6.03;;
29504;SDS011;16452;54.174;12.092;2022-10-16T03:09:57;6.53;;;5.88;;
29504;SDS011;16452;54.174;12.092;2022-10-16T03:12:25;7.45;;;5.97;;
29504;SDS011;16452;54.174;12.092;2022-10-16T03:14:54;9.27;;;5.97;;
29504;SDS011;16452;54.174;12.092;2022-10-16T03:17:21;7.07;;;5.35;;
29504;SDS011;16452;54.174;12.092;2022-10-16T03:19:48;10.68;;;5.40;;
29504;SDS011;16452;54.174;12.092;2022-10-16T03:22:14;8.50;;;5.32;;
29504;SDS011;16452;54.174;12.092;2022-10-16T03:24:40;9.50;;;4.95;;
29504;SDS011;16452;54.174;12.092;2022-10-16T03:27:05;10.50;;;5.13;;
29504;SDS011;16452;54.174;12.092;2022-10-16T03:29:31;6.80;;;4.85;;
29504;SDS011;16452;54.174;12.092;2022-10-16T03:31:57;8.10;;;4.63;;
29504;SDS011;16452;54.174;12.092;2022-10-16T03:34:24;6.88;;;4.80;;
29504;SDS011;16452;54.174;12.092;2022-10-16T03:36:50;5.85;;;4.72;;
29504;SDS011;16452;54.174;12.092;2022-10-16T03:39:16;9.32;;;4.88;;
29504;SDS011;16452;54.174;12.092;2022-10-16T03:41:42;6.00;;;4.90;;
29504;SDS011;16452;54.174;12.092;2022-10-16T03:44:08;7.13;;;5.30;;
29504;SDS011;16452;54.174;12.092;2022-10-16T03:46:34;6.93;;;4.90;;
29504;SDS011;16452;54.174;12.092;2022-10-16T03:48:59;10.88;;;5.10;;
29504;SDS011;16452;54.174;12.092;2022-10-16T03:51:25;5.03;;;4.53;;
29504;SDS011;16452;54.174;12.092;2022-10-16T03:53:51;6.90;;;4.65;;
29504;SDS011;16452;54.174;12.092;2022-10-16T03:56:20;7.20;;;4.80;;
29504;SDS011;16452;54.174;12.092;2022-10-16T03:58:45;8.25;;;5.20;;
29504;SDS011;16452;54.174;12.092;2022-10-16T04:01:11;11.02;;;5.10;;
29504;SDS011;16452;54.174;12.092;2022-10-16T04:03:37;6.97;;;4.43;;
29504;SDS011;16452;54.174;12.092;2022-10-16T04:06:02;9.50;;;4.90;;
29504;SDS011;16452;54.174;12.092;2022-10-16T04:08:28;7.35;;;4.55;;
29504;SDS011;16452;54.174;12.092;2022-10-16T04:10:54;7.10;;;4.40;;
29504;SDS011;16452;54.174;12.092;2022-10-16T04:13:20;6.32;;;4.45;;
29504;SDS011;16452;54.174;12.092;2022-10-16T04:15:45;7.43;;;4.25;;
29504;SDS011;16452;54.174;12.092;2022-10-16T04:18:11;7.75;;;4.32;;
29504;SDS011;16452;54.174;12.092;2022-10-16T04:20:37;6.28;;;3.92;;
29504;SDS011;16452;54.174;12.092;2022-10-16T04:23:03;7.35;;;3.90;;
29504;SDS011;16452;54.174;12.092;2022-10-16T04:25:29;3.75;;;3.42;;
29504;SDS011;16452;54.174;12.092;2022-10-16T04:27:55;5.15;;;3.58;;
29504;SDS011;16452;54.174;12.092;2022-10-16T04:30:22;9.25;;;3.70;;
29504;SDS011;16452;54.174;12.092;2022-10-16T04:32:48;6.10;;;3.63;;
29504;SDS011;16452;54.174;12.092;2022-10-16T04:35:15;6.82;;;3.72;;
29504;SDS011;16452;54.174;12.092;2022-10-16T04:37:42;5.47;;;3.38;;
29504;SDS011;16452;54.174;12.092;2022-10-16T04:40:08;8.07;;;3.88;;
29504;SDS011;16452;54.174;12.092;2022-10-16T04:42:34;6.65;;;3.70;;
29504;SDS011;16452;54.174;12.092;2022-10-16T04:44:59;5.32;;;3.38;;
29504;SDS011;16452;54.174;12.092;2022-10-16T04:47:25;7.72;;;3.60;;
29504;SDS011;16452;54.174;12.092;2022-10-16T04:49:51;8.70;;;4.55;;
29504;SDS011;16452;54.174;12.092;2022-10-16T04:52:17;6.55;;;3.65;;
29504;SDS011;16452;54.174;12.092;2022-10-16T04:54:43;6.45;;;3.75;;
29504;SDS011;16452;54.174;12.092;2022-10-16T04:57:10;7.50;;;4.00;;
29504;SDS011;16452;54.174;12.092;2022-10-16T04:59:36;7.55;;;3.40;;
29504;SDS011;16452;54.174;12.092;2022-10-16T05:02:02;5.60;;;3.50;;
29504;SDS011;16452;54.174;12.092;2022-10-16T05:04:28;4.35;;;3.10;;
29504;SDS011;16452;54.174;12.092;2022-10-16T05:06:53;3.80;;;3.17;;
29504;SDS011;16452;54.174;12.092;2022-10-16T05:09:19;5.15;;;3.17;;
29504;SDS011;16452;54.174;12.092;2022-10-16T05:11:45;5.72;;;3.53;;
29504;SDS011;16452;54.174;12.092;2022-10-16T05:14:11;6.78;;;3.38;;
29504;SDS011;16452;54.174;12.092;2022-10-16T05:16:37;4.90;;;2.85;;
29504;SDS011;16452;54.174;12.092;2022-10-16T05:19:02;7.05;;;3.25;;
29504;SDS011;16452;54.174;12.092;2022-10-16T05:21:28;4.07;;;3.00;;
29504;SDS011;16452;54.174;12.092;2022-10-16T05:23:54;4.60;;;2.90;;
29504;SDS011;16452;54.174;12.092;2022-10-16T05:26:20;5.88;;;3.13;;
29504;SDS011;16452;54.174;12.092;2022-10-16T05:28:46;4.40;;;2.85;;
29504;SDS011;16452;54.174;12.092;2022-10-16T05:31:12;7.20;;;2.90;;
29504;SDS011;16452;54.174;12.092;2022-10-16T05:33:37;4.53;;;2.90;;
29504;SDS011;16452;54.174;12.092;2022-10-16T05:36:07;6.00;;;2.85;;
29504;SDS011;16452;54.174;12.092;2022-10-16T05:38:35;5.40;;;3.13;;
29504;SDS011;16452;54.174;12.092;2022-10-16T05:41:02;5.90;;;2.63;;
29504;SDS011;16452;54.174;12.092;2022-10-16T05:43:30;9.75;;;2.72;;
29504;SDS011;16452;54.174;12.092;2022-10-16T05:45:57;6.30;;;2.72;;
29504;SDS011;16452;54.174;12.092;2022-10-16T05:48:29;7.60;;;2.70;;
29504;SDS011;16452;54.174;12.092;2022-10-16T05:51:05;5.13;;;2.50;;
29504;SDS011;16452;54.174;12.092;2022-10-16T05:53:36;4.60;;;2.40;;
29504;SDS011;16452;54.174;12.092;2022-10-16T05:56:04;4.70;;;2.08;;
29504;SDS011;16452;54.174;12.092;2022-10-16T05:58:32;5.00;;;2.25;;
29504;SDS011;16452;54.174;12.092;2022-10-16T06:01:03;3.90;;;2.40;;
29504;SDS011;16452;54.174;12.092;2022-10-16T06:03:42;4.35;;;2.10;;
29504;SDS011;16452;54.174;12.092;2022-10-16T06:06:18;2.72;;;2.30;;
29504;SDS011;16452;54.174;12.092;2022-10-16T06:08:46;6.35;;;2.03;;
29504;SDS011;16452;54.174;12.092;2022-10-16T06:11:14;7.38;;;2.28;;
29504;SDS011;16452;54.174;12.092;2022-10-16T06:13:48;4.72;;;2.10;;
29504;SDS011;16452;54.174;12.092;2022-10-16T06:16:21;7.97;;;2.00;;
29504;SDS011;16452;54.174;12.092;2022-10-16T06:18:47;5.20;;;2.13;;
29504;SDS011;16452;54.174;12.092;2022-10-16T06:21:17;4.18;;;1.85;;
29504;SDS011;16452;54.174;12.092;2022-10-16T06:23:46;5.63;;;1.95;;
29504;SDS011;16452;54.174;12.092;2022-10-16T06:26:13;3.58;;;2.00;;
29504;SDS011;16452;54.174;12.092;2022-10-16T06:28:42;3.63;;;2.13;;
29504;SDS011;16452;54.174;12.092;2022-10-16T06:31:09;5.80;;;1.92;;
29504;SDS011;16452;54.174;12.092;2022-10-16T06:33:37;4.55;;;1.75;;
29504;SDS011;16452;54.174;12.092;2022-10-16T06:36:11;1.85;;;1.73;;
29504;SDS011;16452;54.174;12.092;2022-10-16T06:38:39;3.53;;;1.83;;
29504;SDS011;16452;54.174;12.092;2022-10-16T06:41:05;3.53;;;2.00;;
29504;SDS011;16452;54.174;12.092;2022-10-16T06:43:32;6.75;;;2.17;;
29504;SDS011;16452;54.174;12.092;2022-10-16T06:46:00;4.28;;;1.60;;
29504;SDS011;16452;54.174;12.092;2022-10-16T06:48:28;3.60;;;1.80;;
29504;SDS011;16452;54.174;12.092;2022-10-16T06:50:58;4.25;;;1.60;;
29504;SDS011;16452;54.174;12.092;2022-10-16T06:53:26;8.73;;;2.08;;
29504;SDS011;16452;54.174;12.092;2022-10-16T06:55:54;2.78;;;1.48;;
29504;SDS011;16452;54.174;12.092;2022-10-16T06:58:20;3.72;;;1.67;;
29504;SDS011;16452;54.174;12.092;2022-10-16T07:00:46;6.55;;;1.85;;
29504;SDS011;16452;54.174;12.092;2022-10-16T07:03:12;2.63;;;1.67;;
29504;SDS011;16452;54.174;12.092;2022-10-16T07:05:41;4.00;;;1.70;;
29504;SDS011;16452;54.174;12.092;2022-10-16T07:08:08;3.97;;;1.48;;
29504;SDS011;16452;54.174;12.092;2022-10-16T07:10:34;3.15;;;1.50;;
29504;SDS011;16452;54.174;12.092;2022-10-16T07:13:01;4.70;;;1.60;;
29504;SDS011;16452;54.174;12.092;2022-10-16T07:15:27;5.70;;;1.60;;
29504;SDS011;16452;54.174;12.092;2022-10-16T07:17:53;4.22;;;1.70;;
29504;SDS011;16452;54.174;12.092;2022-10-16T07:20:19;3.65;;;1.73;;
29504;SDS011;16452;54.174;12.092;2022-10-16T07:22:45;4.43;;;1.40;;
29504;SDS011;16452;54.174;12.092;2022-10-16T07:25:11;5.93;;;1.45;;
29504;SDS011;16452;54.174;12.092;2022-10-16T07:27:37;5.47;;;1.58;;
29504;SDS011;16452;54.174;12.092;2022-10-16T07:30:03;4.53;;;1.40;;
29504;SDS011;16452;54.174;12.092;2022-10-16T07:32:30;7.55;;;1.50;;
29504;SDS011;16452;54.174;12.092;2022-10-16T07:34:56;4.20;;;1.90;;
29504;SDS011;16452;54.174;12.092;2022-10-16T07:37:22;4.18;;;1.50;;
29504;SDS011;16452;54.174;12.092;2022-10-16T07:39:48;3.78;;;1.80;;
29504;SDS011;16452;54.174;12.092;2022-10-16T07:42:14;3.63;;;1.40;;
29504;SDS011;16452;54.174;12.092;2022-10-16T07:44:40;4.60;;;1.30;;
29504;SDS011;16452;54.174;12.092;2022-10-16T07:47:05;4.00;;;1.38;;
29504;SDS011;16452;54.174;12.092;2022-10-16T07:49:32;3.97;;;1.38;;
29504;SDS011;16452;54.174;12.092;2022-10-16T07:51:57;5.55;;;1.73;;
29504;SDS011;16452;54.174;12.092;2022-10-16T07:54:23;4.13;;;1.40;;
29504;SDS011;16452;54.174;12.092;2022-10-16T07:56:49;2.85;;;1.20;;
29504;SDS011;16452;54.174;12.092;2022-10-16T07:59:14;5.45;;;1.38;;
29504;SDS011;16452;54.174;12.092;2022-10-16T08:01:40;5.22;;;1.50;;
29504;SDS011;16452;54.174;12.092;2022-10-16T08:04:09;1.52;;;1.00;;
29504;SDS011;16452;54.174;12.092;2022-10-16T08:06:38;3.40;;;1.35;;
29504;SDS011;16452;54.174;12.092;2022-10-16T08:09:05;6.55;;;1.35;;
29504;SDS011;16452;54.174;12.092;2022-10-16T08:11:32;6.95;;;1.20;;
29504;SDS011;16452;54.174;12.092;2022-10-16T08:13:58;4.53;;;1.13;;
29504;SDS011;16452;54.174;12.092;2022-10-16T08:16:24;4.10;;;1.40;;
29504;SDS011;16452;54.174;12.092;2022-10-16T08:18:49;3.33;;;1.20;;
29504;SDS011;16452;54.174;12.092;2022-10-16T08:21:17;7.43;;;1.20;;
29504;SDS011;16452;54.174;12.092;2022-10-16T08:23:45;4.45;;;1.40;;
29504;SDS011;16452;54.174;12.092;2022-10-16T08:26:12;3.53;;;1.30;;
29504;SDS011;16452;54.174;12.092;2022-10-16T08:28:38;3.88;;;1.35;;
29504;SDS011;16452;54.174;12.092;2022-10-16T08:31:08;4.18;;;1.23;;
29504;SDS011;16452;54.174;12.092;2022-10-16T08:33:40;5.40;;;1.15;;
29504;SDS011;16452;54.174;12.092;2022-10-16T08:36:09;4.00;;;1.40;;
29504;SDS011;16452;54.174;12.092;2022-10-16T08:38:36;7.10;;;1.83;;
29504;SDS011;16452;54.174;12.092;2022-10-16T08:46:52;5.28;;;1.20;;
29504;SDS011;16452;54.174;12.092;2022-10-16T08:49:54;5.63;;;1.50;;
29504;SDS011;16452;54.174;12.092;2022-10-16T08:52:25;2.72;;;1.10;;
29504;SDS011;16452;54.174;12.092;2022-10-16T08:55:01;4.93;;;1.45;;
29504;SDS011;16452;54.174;12.092;2022-10-16T08:57:29;3.33;;;1.25;;
29504;SDS011;16452;54.174;12.092;2022-10-16T08:59:58;3.08;;;1.05;;
29504;SDS011;16452;54.174;12.092;2022-10-16T09:02:52;3.83;;;1.30;;
29504;SDS011;16452;54.174;12.092;2022-10-16T09:06:17;3.10;;;1.20;;
29504;SDS011;16452;54.174;12.092;2022-10-16T09:12:12;3.38;;;1.10;;
29504;SDS011;16452;54.174;12.092;2022-10-16T09:23:30;6.07;;;1.50;;
29504;SDS011;16452;54.174;12.092;2022-10-16T09:25:59;5.50;;;1.60;;
29504;SDS011;16452;54.174;12.092;2022-10-16T09:28:25;6.57;;;1.38;;
29504;SDS011;16452;54.174;12.092;2022-10-16T09:30:51;4.05;;;1.20;;
29504;SDS011;16452;54.174;12.092;2022-10-16T09:33:18;4.90;;;1.40;;
29504;SDS011;16452;54.174;12.092;2022-10-16T09:35:52;4.55;;;1.60;;
29504;SDS011;16452;54.174;12.092;2022-10-16T09:38:24;3.47;;;1.13;;
29504;SDS011;16452;54.174;12.092;2022-10-16T09:40:56;4.05;;;1.30;;
29504;SDS011;16452;54.174;12.092;2022-10-16T09:43:34;3.60;;;1.33;;
29504;SDS011;16452;54.174;12.092;2022-10-16T09:46:08;4.18;;;1.27;;
29504;SDS011;16452;54.174;12.092;2022-10-16T09:48:47;4.45;;;1.30;;
29504;SDS011;16452;54.174;12.092;2022-10-16T09:51:20;1.58;;;1.15;;
29504;SDS011;16452;54.174;12.092;2022-10-16T09:54:01;3.53;;;1.20;;
29504;SDS011;16452;54.174;12.092;2022-10-16T09:56:34;3.67;;;1.13;;
29504;SDS011;16452;54.174;12.092;2022-10-16T09:59:10;5.25;;;1.38;;
29504;SDS011;16452;54.174;12.092;2022-10-16T10:01:45;8.82;;;1.50;;
29504;SDS011;16452;54.174;12.092;2022-10-16T10:04:17;11.57;;;1.67;;
29504;SDS011;16452;54.174;12.092;2022-10-16T10:06:46;3.05;;;1.08;;
29504;SDS011;16452;54.174;12.092;2022-10-16T10:11:53;3.50;;;1.08;;
29504;SDS011;16452;54.174;12.092;2022-10-16T10:17:15;2.25;;;1.05;;
29504;SDS011;16452;54.174;12.092;2022-10-16T10:22:40;4.10;;;1.23;;
29504;SDS011;16452;54.174;12.092;2022-10-16T10:27:45;2.88;;;1.27;;
29504;SDS011;16452;54.174;12.092;2022-10-16T10:33:47;4.82;;;1.05;;
29504;SDS011;16452;54.174;12.092;2022-10-16T10:36:38;2.70;;;1.10;;
29504;SDS011;16452;54.174;12.092;2022-10-16T11:01:34;3.08;;;1.20;;
29504;SDS011;16452;54.174;12.092;2022-10-16T11:04:47;2.70;;;1.00;;
29504;SDS011;16452;54.174;12.092;2022-10-16T11:10:46;2.97;;;1.13;;
29504;SDS011;16452;54.174;12.092;2022-10-16T11:13:28;2.80;;;1.35;;
29504;SDS011;16452;54.174;12.092;2022-10-16T11:16:02;3.00;;;1.13;;
29504;SDS011;16452;54.174;12.092;2022-10-16T11:18:58;3.08;;;1.10;;
29504;SDS011;16452;54.174;12.092;2022-10-16T11:21:46;3.05;;;1.00;;
29504;SDS011;16452;54.174;12.092;2022-10-16T11:24:22;2.13;;;1.20;;
29504;SDS011;16452;54.174;12.092;2022-10-16T11:27:00;2.53;;;0.88;;
29504;SDS011;16452;54.174;12.092;2022-10-16T11:29:40;2.70;;;1.20;;
29504;SDS011;16452;54.174;12.092;2022-10-16T11:32:32;3.08;;;1.00;;
29504;SDS011;16452;54.174;12.092;2022-10-16T11:35:15;2.20;;;1.00;;
29504;SDS011;16452;54.174;12.092;2022-10-16T11:37:49;4.18;;;0.90;;
29504;SDS011;16452;54.174;12.092;2022-10-16T11:40:19;3.65;;;1.08;;
29504;SDS011;16452;54.174;12.092;2022-10-16T11:43:17;3.78;;;1.15;;
29504;SDS011;16452;54.174;12.092;2022-10-16T11:46:17;4.65;;;1.10;;
29504;SDS011;16452;54.174;12.092;2022-10-16T11:48:51;3.20;;;1.02;;
29504;SDS011;16452;54.174;12.092;2022-10-16T11:54:07;0.77;;;0.75;;
29504;SDS011;16452;54.174;12.092;2022-10-16T11:56:52;3.53;;;1.05;;
29504;SDS011;16452;54.174;12.092;2022-10-16T11:59:30;2.30;;;1.15;;
29504;SDS011;16452;54.174;12.092;2022-10-16T12:08:20;9.32;;;1.40;;
29504;SDS011;16452;54.174;12.092;2022-10-16T12:10:47;4.88;;;1.85;;
29504;SDS011;16452;54.174;12.092;2022-10-16T12:13:29;5.07;;;1.10;;
29504;SDS011;16452;54.174;12.092;2022-10-16T12:18:36;3.85;;;1.10;;
29504;SDS011;16452;54.174;12.092;2022-10-16T12:21:07;1.55;;;0.93;;
29504;SDS011;16452;54.174;12.092;2022-10-16T12:23:38;3.78;;;0.98;;
29504;SDS011;16452;54.174;12.092;2022-10-16T12:26:23;4.57;;;1.00;;
29504;SDS011;16452;54.174;12.092;2022-10-16T12:28:54;2.33;;;1.10;;
29504;SDS011;16452;54.174;12.092;2022-10-16T12:31:22;3.40;;;0.82;;
29504;SDS011;16452;54.174;12.092;2022-10-16T12:36:31;2.13;;;1.00;;
29504;SDS011;16452;54.174;12.092;2022-10-16T12:38:59;4.13;;;1.10;;
29504;SDS011;16452;54.174;12.092;2022-10-16T12:41:30;1.95;;;1.38;;
29504;SDS011;16452;54.174;12.092;2022-10-16T12:43:59;4.32;;;1.63;;
29504;SDS011;16452;54.174;12.092;2022-10-16T12:51:53;9.02;;;1.20;;
29504;SDS011;16452;54.174;12.092;2022-10-16T12:54:20;3.70;;;1.40;;
29504;SDS011;16452;54.174;12.092;2022-10-16T12:57:06;4.05;;;1.08;;
29504;SDS011;16452;54.174;12.092;2022-10-16T13:12:01;6.45;;;1.08;;
29504;SDS011;16452;54.174;12.092;2022-10-16T13:17:57;7.07;;;1.20;;
29504;SDS011;16452;54.174;12.092;2022-10-16T13:20:31;5.10;;;1.10;;
29504;SDS011;16452;54.174;12.092;2022-10-16T13:23:18;3.80;;;1.10;;
29504;SDS011;16452;54.174;12.092;2022-10-16T13:28:34;6.53;;;1.27;;
29504;SDS011;16452;54.174;12.092;2022-10-16T13:31:02;4.63;;;1.13;;
29504;SDS011;16452;54.174;12.092;2022-10-16T13:36:04;5.53;;;1.90;;
29504;SDS011;16452;54.174;12.092;2022-10-16T13:38:34;2.45;;;0.90;;
29504;SDS011;16452;54.174;12.092;2022-10-16T13:41:02;2.22;;;1.10;;
29504;SDS011;16452;54.174;12.092;2022-10-16T13:43:39;3.83;;;1.88;;
29504;SDS011;16452;54.174;12.092;2022-10-16T13:46:15;5.68;;;3.05;;
29504;SDS011;16452;54.174;12.092;2022-10-16T13:48:43;13.80;;;7.40;;
29504;SDS011;16452;54.174;12.092;2022-10-16T13:51:20;8.63;;;5.13;;
29504;SDS011;16452;54.174;12.092;2022-10-16T13:53:51;5.05;;;3.03;;
29504;SDS011;16452;54.174;12.092;2022-10-16T13:56:20;5.90;;;1.90;;
29504;SDS011;16452;54.174;12.092;2022-10-16T13:59:04;5.28;;;1.48;;
29504;SDS011;16452;54.174;12.092;2022-10-16T14:01:46;5.35;;;1.70;;
29504;SDS011;16452;54.174;12.092;2022-10-16T14:04:12;8.20;;;1.77;;
29504;SDS011;16452;54.174;12.092;2022-10-16T14:06:40;3.78;;;1.15;;
29504;SDS011;16452;54.174;12.092;2022-10-16T14:11:58;5.97;;;1.40;;
29504;SDS011;16452;54.174;12.092;2022-10-16T14:14:46;5.60;;;1.58;;
29504;SDS011;16452;54.174;12.092;2022-10-16T14:17:24;5.88;;;1.33;;
29504;SDS011;16452;54.174;12.092;2022-10-16T14:19:52;4.45;;;1.63;;
29504;SDS011;16452;54.174;12.092;2022-10-16T14:22:24;4.32;;;1.23;;
29504;SDS011;16452;54.174;12.092;2022-10-16T14:27:44;6.78;;;1.70;;
29504;SDS011;16452;54.174;12.092;2022-10-16T14:30:12;3.85;;;1.48;;
29504;SDS011;16452;54.174;12.092;2022-10-16T14:32:55;11.50;;;5.07;;
29504;SDS011;16452;54.174;12.092;2022-10-16T14:35:44;7.35;;;2.58;;
29504;SDS011;16452;54.174;12.092;2022-10-16T14:38:18;5.80;;;1.77;;
29504;SDS011;16452;54.174;12.092;2022-10-16T14:40:47;5.88;;;2.05;;
29504;SDS011;16452;54.174;12.092;2022-10-16T14:43:15;6.72;;;2.80;;
29504;SDS011;16452;54.174;12.092;2022-10-16T14:46:02;2.75;;;1.20;;
29504;SDS011;16452;54.174;12.092;2022-10-16T14:48:42;10.38;;;2.60;;
29504;SDS011;16452;54.174;12.092;2022-10-16T14:51:14;4.72;;;2.05;;
29504;SDS011;16452;54.174;12.092;2022-10-16T14:53:44;6.90;;;2.33;;
29504;SDS011;16452;54.174;12.092;2022-10-16T14:56:18;4.20;;;1.30;;
29504;SDS011;16452;54.174;12.092;2022-10-16T14:58:49;3.72;;;1.50;;
29504;SDS011;16452;54.174;12.092;2022-10-16T15:01:17;6.85;;;2.17;;
29504;SDS011;16452;54.174;12.092;2022-10-16T15:03:43;4.70;;;1.70;;
29504;SDS011;16452;54.174;12.092;2022-10-16T15:06:12;5.15;;;1.50;;
29504;SDS011;16452;54.174;12.092;2022-10-16T15:08:40;5.75;;;1.52;;
29504;SDS011;16452;54.174;12.092;2022-10-16T15:11:10;5.22;;;1.70;;
29504;SDS011;16452;54.174;12.092;2022-10-16T15:13:39;3.22;;;1.30;;
29504;SDS011;16452;54.174;12.092;2022-10-16T15:16:07;4.45;;;1.80;;
29504;SDS011;16452;54.174;12.092;2022-10-16T15:18:38;3.47;;;1.70;;
29504;SDS011;16452;54.174;12.092;2022-10-16T15:21:04;5.63;;;1.65;;
29504;SDS011;16452;54.174;12.092;2022-10-16T15:23:30;4.75;;;1.75;;
29504;SDS011;16452;54.174;12.092;2022-10-16T15:25:56;5.75;;;1.58;;
29504;SDS011;16452;54.174;12.092;2022-10-16T15:28:22;7.75;;;1.75;;
29504;SDS011;16452;54.174;12.092;2022-10-16T15:30:51;4.53;;;1.33;;
29504;SDS011;16452;54.174;12.092;2022-10-16T15:33:23;2.92;;;1.48;;
29504;SDS011;16452;54.174;12.092;2022-10-16T15:35:52;8.00;;;1.60;;
29504;SDS011;16452;54.174;12.092;2022-10-16T15:38:19;5.88;;;1.52;;
29504;SDS011;16452;54.174;12.092;2022-10-16T15:40:47;5.35;;;1.48;;
29504;SDS011;16452;54.174;12.092;2022-10-16T15:43:14;5.07;;;1.52;;
29504;SDS011;16452;54.174;12.092;2022-10-16T15:45:40;5.25;;;1.58;;
29504;SDS011;16452;54.174;12.092;2022-10-16T15:48:06;4.07;;;1.33;;
29504;SDS011;16452;54.174;12.092;2022-10-16T15:50:36;7.78;;;1.48;;
29504;SDS011;16452;54.174;12.092;2022-10-16T15:53:03;2.90;;;1.52;;
29504;SDS011;16452;54.174;12.092;2022-10-16T15:55:29;6.32;;;1.48;;
29504;SDS011;16452;54.174;12.092;2022-10-16T15:57:54;4.43;;;1.60;;
29504;SDS011;16452;54.174;12.092;2022-10-16T16:00:23;7.53;;;1.60;;
29504;SDS011;16452;54.174;12.092;2022-10-16T16:02:53;4.63;;;1.38;;
29504;SDS011;16452;54.174;12.092;2022-10-16T16:05:21;9.45;;;1.90;;
29504;SDS011;16452;54.174;12.092;2022-10-16T16:07:47;8.52;;;1.95;;
29504;SDS011;16452;54.174;12.092;2022-10-16T16:10:14;8.25;;;2.03;;
29504;SDS011;16452;54.174;12.092;2022-10-16T16:12:40;6.30;;;2.15;;
29504;SDS011;16452;54.174;12.092;2022-10-16T16:15:06;5.18;;;1.77;;
29504;SDS011;16452;54.174;12.092;2022-10-16T16:17:34;12.43;;;2.83;;
29504;SDS011;16452;54.174;12.092;2022-10-16T16:20:00;5.30;;;1.88;;
29504;SDS011;16452;54.174;12.092;2022-10-16T16:22:26;6.55;;;2.50;;
29504;SDS011;16452;54.174;12.092;2022-10-16T16:24:53;6.70;;;2.10;;
29504;SDS011;16452;54.174;12.092;2022-10-16T16:27:18;4.68;;;2.03;;
29504;SDS011;16452;54.174;12.092;2022-10-16T16:29:49;8.77;;;1.92;;
29504;SDS011;16452;54.174;12.092;2022-10-16T16:32:15;7.35;;;2.63;;
29504;SDS011;16452;54.174;12.092;2022-10-16T16:34:41;5.43;;;2.53;;
29504;SDS011;16452;54.174;12.092;2022-10-16T16:37:06;6.55;;;2.20;;
29504;SDS011;16452;54.174;12.092;2022-10-16T16:39:32;8.10;;;2.58;;
29504;SDS011;16452;54.174;12.092;2022-10-16T16:41:58;8.63;;;2.58;;
29504;SDS011;16452;54.174;12.092;2022-10-16T16:44:24;12.40;;;3.05;;
29504;SDS011;16452;54.174;12.092;2022-10-16T16:46:51;8.20;;;2.60;;
29504;SDS011;16452;54.174;12.092;2022-10-16T16:49:17;6.63;;;2.30;;
29504;SDS011;16452;54.174;12.092;2022-10-16T16:51:43;7.30;;;2.72;;